Latest Coastal Weather Observations for Low Isles

IDQ60701

Issued at 1:01 am EST Sunday 24 May 2015 (issued every 10 minutes, with the page automatically refreshed every 10 minutes)

About coastal observations | Map of coastal stations | Coastal observations for QLD | Marine services | Other Formats
Station Details ID: 031037 Name: LOW ISLES LIGHTHOUSE Lat: -16.38 Lon: 145.56 Height: 2.9 m
Data from the previous 72 hours. | See also: Recent months at Low Isles
Date/Time
EST
Temp

°C
Wind Pressure Rain
since 9am
mm
Weather Cloud Vis
km
Sea
Height
m
Swell
Dir
 
Speed
knots
Gust
knots
hPa Trend Height
m
Period
s
Dir
24/01:00am 22.7 S 15 19 1018.2 - 0.0 - - - - - - -
24/12:30am 22.6 S 16 19 1018.4 - 0.0 - - - - - - -
24/12:00am 22.7 S 15 18 1018.5 - 0.0 - - - - - - -
 
Date/Time
EST
Temp

°C
Wind Pressure Rain
since 9am
mm
Weather Cloud Vis
km
Sea
Height
m
Swell
Dir
 
Speed
knots
Gust
knots
hPa Trend Height
m
Period
s
Dir
23/11:30pm 22.9 SSE 16 20 1018.7 - 0.0 - - - - - - -
23/11:00pm 23.2 SSE 17 21 1019.0 - 0.0 - - - - - - -
23/10:30pm 23.2 SE 18 24 1019.1 - 0.0 - - - - - - -
23/10:00pm 23.2 SE 19 25 1019.1 - 0.0 - - - - - - -
23/09:30pm 23.3 SE 21 25 1019.0 - 0.0 - - - - - - -
23/09:00pm 23.3 SE 22 26 1019.0 - 0.0 - - - - - - -
23/08:30pm 23.3 SE 22 28 1018.9 - 0.0 - - - - - - -
23/08:00pm 23.3 SE 24 28 1018.6 - 0.0 - - - - - - -
23/07:30pm 23.4 SE 22 26 1018.3 - 0.0 - - - - - - -
23/07:00pm 23.2 SE 23 26 1018.1 - 0.0 - - - - - - -
23/06:30pm 23.4 SE 23 27 1017.8 - 0.0 - - - - - - -
23/06:00pm 23.5 SE 23 28 1017.4 - 0.0 - - - - - - -
23/05:30pm 23.7 SE 24 28 1017.2 - 0.0 - - - - - - -
23/05:00pm 23.7 SE 25 29 1016.9 - 0.0 - - - - - - -
23/04:30pm 24.0 SE 23 28 1016.6 - 0.0 - - - - - - -
23/04:00pm 24.1 SE 22 25 1016.3 - 0.0 - - - - - - -
23/03:30pm 24.3 SE 21 26 1016.2 - 0.0 - - - - - - -
23/03:00pm 24.3 SE 22 26 1016.2 - 0.0 Haze Partly cloudy 10 - - - -
23/02:30pm 24.7 SE 23 27 1016.3 - 0.0 - - - - - - -
23/02:00pm 25.2 SE 22 27 1016.5 - 0.0 - - - - - - -
23/01:30pm 25.1 SE 23 28 1016.7 - 0.0 - - - - - - -
23/01:00pm 25.1 SE 22 26 1017.2 - 0.0 - - - - - - -
23/12:30pm 25.3 SE 21 25 1017.5 - 0.0 - - - - - - -
23/12:00pm 25.0 SE 23 27 1017.7 - 0.0 - - - - - - -
23/11:30am 25.0 SE 24 28 1018.0 - 0.0 - - - - - - -
23/11:00am 24.7 SSE 24 28 1018.3 - 0.0 - - - - - - -
23/10:30am 24.7 SE 23 26 1018.5 - 0.0 - - - - - - -
23/10:00am 24.5 SE 21 26 1018.7 - 0.0 - - - - - - -
23/09:30am 24.4 SSE 19 23 1018.7 - 0.0 - - - - - - -
23/09:00am 24.2 SSE 17 19 1018.5 - 0.0 Haze Mostly clear 20 - - - -
23/08:30am 24.2 SSE 20 25 1018.3 - 0.0 - - - - - - -
23/08:00am 24.2 SE 19 24 1018.0 - 0.0 - - - - - - -
23/07:30am 24.3 SE 18 24 1017.7 - 0.0 - - - - - - -
23/07:00am 24.4 SSE 18 22 1017.5 - 0.0 - - - - - - -
23/06:30am 24.5 SSE 17 21 1017.0 - 0.0 - - - - - - -
23/06:00am 24.6 SSE 17 20 1016.6 - 0.0 - - - - - - -
23/05:30am 24.9 SSE 20 25 1016.2 - 0.0 - - - - - - -
23/05:00am 25.1 SSE 21 26 1016.0 - 0.0 - - - - - - -
23/04:30am 25.0 S 16 20 1015.9 - 0.0 - - - - - - -
23/04:00am 25.0 SSE 18 22 1015.8 - 0.0 - - - - - - -
23/03:30am 25.1 SSE 15 19 1015.8 - 0.0 - - - - - - -
23/03:00am 24.9 S 10 12 1015.7 - 0.0 - - - - - - -
23/02:30am 24.9 S 11 12 1016.0 - 0.0 - - - - - - -
23/02:00am 24.9 SSE 8 11 1016.1 - 0.0 - - - - - - -
23/01:30am 24.8 S 8 10 1016.3 - 0.0 - - - - - - -
23/01:00am 24.9 SSE 10 13 1016.4 - 0.0 - - - - - - -
23/12:30am 25.1 S 11 13 1016.5 - 0.0 - - - - - - -
23/12:00am 25.1 SSE 11 14 1016.5 - 0.0 - - - - - - -
 
Date/Time
EST
Temp

°C
Wind Pressure Rain
since 9am
mm
Weather Cloud Vis
km
Sea
Height
m
Swell
Dir
 
Speed
knots
Gust
knots
hPa Trend Height
m
Period
s
Dir
22/11:30pm 25.1 SSE 11 13 1016.9 - 0.0 - - - - - - -
22/11:00pm 25.2 S 10 11 1017.0 - 0.0 - - - - - - -
22/10:30pm 25.3 SSE 11 13 1017.1 - 0.0 - - - - - - -
22/10:00pm 25.5 SSE 13 16 1017.0 - 0.0 - - - - - - -
22/09:30pm 25.6 SE 15 18 1016.9 - 0.0 - - - - - - -
22/09:00pm 25.5 SE 16 19 1016.7 - 0.0 - - - - - - -
22/08:30pm 25.3 SE 15 19 1016.7 - 0.0 - - - - - - -
22/08:00pm 25.3 SE 15 18 1016.6 - 0.0 - - - - - - -
22/07:30pm 25.1 ESE 14 17 1016.4 - 0.0 - - - - - - -
22/07:00pm 25.1 ESE 15 19 1016.1 - 0.0 - - - - - - -
22/06:30pm 25.1 ESE 16 20 1015.9 - 0.0 - - - - - - -
22/06:00pm 25.2 ESE 16 19 1015.6 - 0.0 - - - - - - -
22/05:30pm 25.4 ESE 15 18 1015.4 - 0.0 - - - - - - -
22/05:00pm 25.7 SE 16 19 1015.0 - 0.0 - - - - - - -
22/04:30pm 26.3 SE 16 18 1014.8 - 0.0 - - - - - - -
22/04:00pm 26.9 SE 14 18 1014.7 - 0.0 - - - - - - -
22/03:30pm 27.2 ESE 16 21 1014.7 - 0.0 - - - - - - -
22/03:00pm 27.8 ESE 17 21 1014.5 - 0.0 Haze Partly cloudy 10 - - - -
22/02:30pm 28.3 ESE 17 22 1014.6 - 0.0 - - - - - - -
22/02:00pm 29.0 ESE 16 22 1014.8 - 0.0 - - - - - - -
22/01:30pm 29.1 ESE 17 20 1014.9 - 0.0 - - - - - - -
22/01:00pm 29.1 ESE 14 19 1015.4 - 0.0 - - - - - - -
22/12:30pm 29.6 ESE 12 15 1015.8 - 0.0 - - - - - - -
22/12:00pm 28.8 ESE 9 13 1016.0 - 0.0 - - - - - - -
22/11:30am 28.9 ESE 7 10 1016.5 - 0.0 - - - - - - -
22/11:00am 27.6 S 3 5 1016.9 - 0.0 - - - - - - -
22/10:30am 27.2 S 5 6 1017.3 - 0.0 - - - - - - -
22/10:00am 25.9 S 5 7 1017.4 - 0.0 - - - - - - -
22/09:30am 25.5 SSW 9 9 1017.4 - 0.0 - - - - - - -
22/09:00am 25.1 S 8 10 1017.5 - 0.0 Haze Partly cloudy 20 - - - -
22/08:30am 24.9 S 8 9 1017.3 - 0.0 - - - - - - -
22/08:00am 24.7 S 6 8 1017.1 - 0.0 - - - - - - -
22/07:30am 24.7 SSE 6 8 1016.8 - 0.0 - - - - - - -
22/07:00am 24.6 S 7 8 1016.6 - 0.0 - - - - - - -
22/06:30am 24.7 SSW 10 11 1016.0 - 0.0 - - - - - - -
22/06:00am 24.9 S 9 11 1015.7 - 0.0 - - - - - - -
22/05:30am 24.8 S 9 11 1015.6 - 0.0 - - - - - - -
22/05:00am 24.8 S 8 10 1015.3 - 0.0 - - - - - - -
22/04:30am 24.9 S 8 9 1015.1 - 0.0 - - - - - - -
22/04:00am 24.9 S 7 9 1015.1 - 0.0 - - - - - - -
22/03:30am 24.9 S 8 10 1014.9 - 0.0 - - - - - - -
22/03:00am 25.0 SSW 9 11 1015.0 - 0.0 - - - - - - -
22/02:30am 25.1 SSW 10 11 1015.3 - 0.0 - - - - - - -
22/02:00am 25.0 SW 9 10 1015.3 - 0.0 - - - - - - -
22/01:30am 25.1 SSW 6 8 1015.5 - 0.0 - - - - - - -
22/01:00am 25.1 SSW 7 8 1015.7 - 0.0 - - - - - - -
22/12:30am 25.1 S 7 9 1016.1 - 0.0 - - - - - - -
22/12:00am 25.3 S 8 10 1016.2 - 0.0 - - - - - - -
 
Date/Time
EST
Temp

°C
Wind Pressure Rain
since 9am
mm
Weather Cloud Vis
km
Sea
Height
m
Swell
Dir
 
Speed
knots
Gust
knots
hPa Trend Height
m
Period
s
Dir
21/11:30pm 25.3 SE 9 11 1016.7 - 0.0 - - - - - - -
21/11:00pm 25.4 SSE 9 10 1016.9 - 0.0 - - - - - - -
21/10:30pm 25.5 SSE 7 9 1017.0 - 0.0 - - - - - - -
21/10:00pm 25.5 SSE 8 9 1016.9 - 0.0 - - - - - - -
21/09:30pm 25.4 SE 9 10 1017.0 - 0.0 - - - - - - -
21/09:00pm 25.4 SE 8 10 1017.0 - 0.0 - - - - - - -
21/08:30pm 25.4 SE 7 8 1017.0 - 0.0 - - - - - - -
21/08:00pm 25.3 SE 9 10 1016.7 - 0.0 - - - - - - -
21/07:30pm 25.3 SE 9 10 1016.4 - 0.0 - - - - - - -
21/07:00pm 25.3 ESE 8 10 1016.1 - 0.0 - - - - - - -
21/06:30pm 25.4 SE 8 10 1015.8 - 0.0 - - - - - - -
21/06:00pm 25.4 SE 8 10 1015.4 - 0.0 - - - - - - -
21/05:30pm 25.8 SE 9 11 1015.2 - 0.0 - - - - - - -
21/05:00pm 26.2 SE 9 11 1015.0 - 0.0 - - - - - - -
21/04:30pm 26.7 SE 9 11 1014.9 - 0.0 - - - - - - -
21/04:00pm 27.5 ESE 9 13 1014.7 - 0.0 - - - - - - -
21/03:30pm 28.1 ESE 11 13 1014.7 - 0.0 - - - - - - -
21/03:00pm 29.0 ESE 9 11 1014.8 - 0.0 Haze Mostly clear 12 - - - -
21/02:30pm 28.8 ESE 9 12 1015.0 - 0.0 - - - - - - -
21/02:00pm 27.7 SE 10 13 1015.4 - 0.0 - - - - - - -
21/01:30pm 27.8 SE 11 13 1015.5 - 0.0 - - - - - - -
21/01:00pm 27.8 SE 10 11 1016.0 - 0.0 - - - - - - -
21/12:30pm 28.1 SE 10 11 1016.5 - 0.0 - - - - - - -
21/12:00pm 27.3 SSE 9 11 1016.8 - 0.0 - - - - - - -
21/11:30am 27.2 SSE 9 11 1017.4 - 0.0 - - - - - - -
21/11:00am 26.8 SSE 9 11 1017.8 - 0.0 - - - - - - -
21/10:30am 26.6 SSE 8 10 1018.1 - 0.0 - - - - - - -
21/10:00am 26.0 S 7 8 1018.3 - 0.0 - - - - - - -
21/09:30am 25.4 S 7 9 1018.4 - 0.0 - - - - - - -
21/09:00am 25.1 SSW 8 9 1018.2 - 0.0 Distant precip. Mostly cloudy 20 - - - -
21/08:30am 24.9 SSW 8 9 1017.9 - 0.0 - - - - - - -
21/08:00am 24.6 SSW 8 9 1017.7 - 0.0 - - - - - - -
21/07:30am 24.4 SSW 7 9 1017.4 - 0.0 - - - - - - -
21/07:00am 24.4 SSW 8 10 1017.2 - 0.0 - - - - - - -
21/06:30am 24.3 SSW 9 10 1016.8 - 0.0 - - - - - - -
21/06:00am 24.5 SW 9 10 1016.4 - 0.0 - - - - - - -
21/05:30am 24.4 SSW 9 11 1016.3 - 0.0 - - - - - - -
21/05:00am 24.3 SSW 8 9 1016.1 - 0.0 - - - - - - -
21/04:30am 24.2 SSW 8 9 1015.9 - 0.0 - - - - - - -
21/04:00am 24.3 SW 8 9 1015.9 - 0.0 - - - - - - -
21/03:30am 24.4 SSW 8 9 1016.0 - 0.0 - - - - - - -
21/03:00am 24.4 SSW 9 11 1015.9 - 0.0 - - - - - - -
21/02:30am 24.5 S 8 11 1016.2 - 0.0 - - - - - - -
21/02:00am 24.5 S 9 11 1016.5 - 0.0 - - - - - - -
21/01:30am 24.6 S 11 14 1016.8 - 0.0 - - - - - - -

Other Formats:

Comma delimited format used in spreadsheet applications
http://www.bom.gov.au/fwo/IDQ60701/IDQ60701.94285.axf

JavaScript Object Notation format (JSON) in row-major order
http://www.bom.gov.au/fwo/IDQ60701/IDQ60701.94285.json